METAR / TAF
Helsinki-Vantaa
HELSINKI/VANTAA
Metar
EFHK 151950Z 23005KT CAVOK 02/01 Q1015 NOSIG

19:50 UTC

Wind: 230° 5kt

Visibility:

Sky:

Temp: 2 deg C / 35.6 deg F

Dewpoint: 1 deg C / 33.8 deg F

Pressure: 1015 hPa

TAF
TAF EFHK 151725Z 1518/1618 26008KT CAVOK BECMG 1520/1522 2000 BR BKN005 TEMPO 1522/1603 0500 FZFG VV002 BECMG 1603/1605 CAVOK
Helsinki, Malmi
HELSINKI/MALMI
Turku
TURKU/ABO
Metar
EFTU 151950Z AUTO VRB02KT CAVOK 01/01 Q1015

19:50 UTC

Wind: ° 2kt

Visibility:

Sky:

Temp: 1 deg C / 33.8 deg F

Dewpoint: 1 deg C / 33.8 deg F

Pressure: 1015 hPa

TAF
TAF EFTU 151725Z 1518/1618 27008KT CAVOK BECMG 1519/1521 2000 BR BKN004 TEMPO 1521/1523 0800 FZFG VV002 BECMG 1523/1601 CAVOK
Tampere, Pirkkala
TAMPERE/PIRKKALA
Metar
EFTP 151950Z AUTO VRB03KT 150V230 CAVOK 01/00 Q1014

19:50 UTC

Wind: ° 3kt

Visibility:

Sky:

Temp: 1 deg C / 33.8 deg F

Dewpoint: 0 deg C / 32 deg F

Pressure: 1014 hPa

TAF
TAF EFTP 151725Z 1518/1618 25006KT CAVOK BECMG 1519/1521 0500 FZFG VV001 TEMPO 1521/1602 2000 BR BECMG 1602/1604 CAVOK
Maarianhamina
MARIEHAMN/ALAND
Metar
EFMA 151950Z AUTO 22005KT 190V270 CAVOK 03/01 Q1016

19:50 UTC

Wind: 220° 5kt

Visibility:

Sky:

Temp: 3 deg C / 37.4 deg F

Dewpoint: 1 deg C / 33.8 deg F

Pressure: 1016 hPa

TAF
TAF EFMA 151725Z 1518/1603 22006KT CAVOK
Pori
PORI (MIL/CIV)
Metar
EFPO 151950Z AUTO 24006KT CAVOK 03/01 Q1013

19:50 UTC

Wind: 240° 6kt

Visibility:

Sky:

Temp: 3 deg C / 37.4 deg F

Dewpoint: 1 deg C / 33.8 deg F

Pressure: 1013 hPa

TAF
TAF AMD EFPO 151856Z 1518/1521 VRB02KT CAVOK BECMG 1519/1521 0500 FZFG VV002
Vaasa
VAASA
Metar
EFVA 151950Z AUTO 22003KT 200V260 CAVOK 03/01 Q1010

19:50 UTC

Wind: 220° 3kt

Visibility:

Sky:

Temp: 3 deg C / 37.4 deg F

Dewpoint: 1 deg C / 33.8 deg F

Pressure: 1010 hPa

TAF
TAF EFVA 151733Z 1518/1618 26007KT CAVOK BECMG 1522/1524 20010KT TEMPO 1611/1618 25018G30KT
Kruunupyy
KRUUNUPYY
Metar
EFKK 151950Z 19004KT CAVOK 02/00 Q1009

19:50 UTC

Wind: 190° 4kt

Visibility:

Sky:

Temp: 2 deg C / 35.6 deg F

Dewpoint: 0 deg C / 32 deg F

Pressure: 1009 hPa

TAF
TAF EFKK 151733Z 1518/1524 22007KT CAVOK PROB40 1521/1524 2000 BR BKN002
Jyväskylä, Tikkakoski
JYVASKYLA (MIL/C
Metar
EFJY 151950Z AUTO 25002KT CAVOK 00/M02 Q1010

19:50 UTC

Wind: 250° 2kt

Visibility:

Sky:

Temp: 0 deg C / 32 deg F

Dewpoint: -2 deg C / 28.4 deg F

Pressure: 1010 hPa

TAF
TAF EFJY 151725Z 1518/1618 32005KT CAVOK BECMG 1520/1522 4000 BR BKN005 TEMPO 1522/1605 0500 FZFG VV002 BECMG 1605/1607 CAVOK
Kuopio
KUOPIO (MIL/CIV)
Metar
EFKU 151950Z AUTO 26006KT CAVOK 00/M03 Q1009

19:50 UTC

Wind: 260° 6kt

Visibility:

Sky:

Temp: 0 deg C / 32 deg F

Dewpoint: -3 deg C / 26.6 deg F

Pressure: 1009 hPa

TAF
TAF EFKU 151733Z 1518/1618 26007KT CAVOK BECMG 1602/1604 2000 BR BKN004 PROB30 1603/1608 0900 FZFG BECMG 1608/1609 9999 NSW BKN015 BECMG 1610/1612 24014KT TEMPO 1614/1618 26016G26KT
Joensuu
JOENSUU
Metar
EFJO 151950Z 28007KT CAVOK M00/M04 Q1008

19:50 UTC

Wind: 280° 7kt

Visibility:

Sky:

Temp: 0 deg C / 32 deg F

Dewpoint: -4 deg C / 24.8 deg F

Pressure: 1008 hPa

TAF
TAF EFJO 151733Z 1518/1524 26009KT CAVOK
Halli
HALLI (FIN-AFB)
Metar
EFHA 151950Z AUTO 20005KT CAVOK 02/00 Q1012

19:50 UTC

Wind: 200° 5kt

Visibility:

Sky:

Temp: 2 deg C / 35.6 deg F

Dewpoint: 0 deg C / 32 deg F

Pressure: 1012 hPa

Utti
UTTI (FIN-AFB)
Metar
EFUT 151950Z AUTO 25006KT CAVOK 02/M00 Q1013

19:50 UTC

Wind: 250° 6kt

Visibility:

Sky:

Temp: 2 deg C / 35.6 deg F

Dewpoint: 0 deg C / 32 deg F

Pressure: 1013 hPa

Mikkeli
MIKKELI
Metar
EFMI 151950Z AUTO 27004KT CAVOK 01/M02 Q1012

19:50 UTC

Wind: 270° 4kt

Visibility:

Sky:

Temp: 1 deg C / 33.8 deg F

Dewpoint: -2 deg C / 28.4 deg F

Pressure: 1012 hPa

Savonlinna
SAVONLINNA (AUT)
Metar
EFSA 151950Z AUTO 25004KT 210V280 CAVOK M00/M04 Q1010

19:50 UTC

Wind: 250° 4kt

Visibility:

Sky:

Temp: 0 deg C / 32 deg F

Dewpoint: -4 deg C / 24.8 deg F

Pressure: 1010 hPa

TAF
TAF EFSA 151432Z 1515/1519 26012KT CAVOK
Lappeenranta
LAPPEENRANTA
Metar
EFLP 151950Z AUTO 23005KT CAVOK 01/M01 Q1012

19:50 UTC

Wind: 230° 5kt

Visibility:

Sky:

Temp: 1 deg C / 33.8 deg F

Dewpoint: -1 deg C / 30.2 deg F

Pressure: 1012 hPa

Oulu
OULU/ULEABORG
Metar
EFOU 151950Z AUTO 26006KT 9999 SCT100/// M01/M02 Q1007

19:50 UTC

Wind: 260° 6kt

Visibility: 9999 m

Sky: SCT 10000 ft

Temp: -1 deg C / 30.2 deg F

Dewpoint: -2 deg C / 28.4 deg F

Pressure: 1007 hPa

TAF
TAF EFOU 151733Z 1518/1618 27009KT CAVOK BECMG 1602/1604 20011KT TEMPO 1606/1609 6000 -SNRA BKN008 TEMPO 1612/1615 25020G30KT TEMPO 1615/1618 25030G40KT
Kemi
KEMI
Metar
EFKE 151950Z AUTO 18003KT CAVOK M02/M04 Q1006

19:50 UTC

Wind: 180° 3kt

Visibility:

Sky:

Temp: -2 deg C / 28.4 deg F

Dewpoint: -4 deg C / 24.8 deg F

Pressure: 1006 hPa

TAF
TAF EFKE 151733Z 1518/1524 27007KT 9999 SCT030 PROB40 1522/1524 4000 -SN
Rovaniemi
ROVANIEMI (CIV/M
Metar
EFRO 151950Z AUTO 34006KT CAVOK M01/M05 Q1005

19:50 UTC

Wind: 340° 6kt

Visibility:

Sky:

Temp: -1 deg C / 30.2 deg F

Dewpoint: -5 deg C / 23 deg F

Pressure: 1005 hPa

TAF
TAF EFRO 151733Z 1518/1618 28007KT CAVOK TEMPO 1600/1608 1200 SN VV008 BECMG 1604/1606 20012KT TEMPO 1608/1612 23018G29KT TEMPO 1612/1618 23020G31KT 2500 SNRA
Enontekiö
ENONTEKIO
Metar
EFET 151950Z AUTO 24002KT CAVOK M09/M10 Q1003

19:50 UTC

Wind: 240° 2kt

Visibility:

Sky:

Temp: -9 deg C / 15.8 deg F

Dewpoint: -10 deg C / 14 deg F

Pressure: 1003 hPa

Ivalo
IVALO
Metar
EFIV 151950Z 30009KT 270V330 CAVOK M02/M05 Q1002

19:50 UTC

Wind: 300° 9kt

Visibility:

Sky:

Temp: -2 deg C / 28.4 deg F

Dewpoint: -5 deg C / 23 deg F

Pressure: 1002 hPa

TAF
TAF AMD EFIV 151839Z 1518/1521 30010KT CAVOK PROB30 1519/1521 4000 -SHSN
Kittilä
KITTILA
Metar
EFKT 151950Z VRB02KT CAVOK M05/M07 Q1004

19:50 UTC

Wind: ° 2kt

Visibility:

Sky:

Temp: -5 deg C / 23 deg F

Dewpoint: -7 deg C / 19.4 deg F

Pressure: 1004 hPa

TAF
TAF EFKT 151733Z 1518/1522 28006KT CAVOK
Kuusamo
KUUSAMO
Metar
EFKS 151950Z AUTO 29004KT 9999 OVC027 M02/M03 Q1003

19:50 UTC

Wind: 290° 4kt

Visibility: 9999 m

Sky: OVC 2700 ft

Temp: -2 deg C / 28.4 deg F

Dewpoint: -3 deg C / 26.6 deg F

Pressure: 1003 hPa

TAF
TAF EFKS 151733Z 1518/1523 27008KT 9999 SCT020 PROB30 1518/1520 6000 -SHSN BKN013
Kajaani
KAJAANI
Metar
EFKI 151950Z 26006KT CAVOK M02/M05 Q1007

19:50 UTC

Wind: 260° 6kt

Visibility:

Sky:

Temp: -2 deg C / 28.4 deg F

Dewpoint: -5 deg C / 23 deg F

Pressure: 1007 hPa

TAF
TAF EFKI 151733Z 1518/1522 25008KT CAVOK
Varkaus
VARKAUS
Seinäjoki
SEINAJOKI-ILMAJO
Metar
EFSI 151950Z AUTO 23003KT //// SCT125 BKN140 05/01 Q1010

19:50 UTC

Wind: 230° 3kt

Visibility:

Sky: SCT 12500 ft

Temp: 5 deg C / 41 deg F

Dewpoint: 1 deg C / 33.8 deg F

Pressure: 1010 hPa

Print Friendly, PDF & Email